AirNav   Bose Proflight Series 2 Wireless Aviation Headset
 
 723 users online  

07II St Vincent Jennings Hospital Heliport
North Vernon, Indiana, USA

GOING TO NORTH VERNON?


FAA INFORMATION EFFECTIVE 07 NOVEMBER 2019

Location

FAA Identifier: 07II
Lat/Long: 39-00-38.1930N 085-38-26.8890W
39-00.636550N 085-38.448150W
39.0106092,-85.6408025
(estimated)
Elevation: 740 ft. / 226 m (estimated)
Variation: 02W (1985)
Time zone: UTC -5 (UTC -4 during Daylight Saving Time)
Zip code: 47265

Heliport Operations

Heliport use: Private use, MEDICAL USE.
Activation date: 08/1985
Control tower: no
ARTCC: INDIANAPOLIS CENTER
FSS: TERRE HAUTE FLIGHT SERVICE STATION
Attendance: CONTINUOUS
Wind indicator: lighted
Segmented circle: no
Lights: ACVT PERI - 123.05

Heliport Communications

WX AWOS-3 at OVO (2.7 nm NE): 120.625 (812-346-5041)
WX AWOS-3 at SER (14 nm W): 119.425 (812-522-4244)
WX AWOS-3 at IMS (17 nm SE): 119.175 (812-866-1798)
WX AWOS-3 at BAK (19 nm NW): 119.75 (812-376-7584)

Nearby radio navigation aids

VOR radial/distance  VOR name  Freq  Var
SHBr166/38.3SHELBYVILLE VOR/DME112.0001E

 
NDB name  Hdg/Dist  Freq  Var  ID
BATESVILLE226/26.925405WHLB .... .-.. -...

Heliport Services

Runway Information

Helipad H1

Dimensions: 60 x 60 ft. / 18 x 18 m
Surface: concrete
Runway edge lights: PERI
Latitude: 39-00.636550N
Longitude: 085-38.448150W
Elevation: 740.0 ft.
Traffic pattern: leftleft

Heliport Ownership and Management from official FAA records

Ownership: Privately-owned
Owner: ST VINCENT JENNINGS HOSPITAL
301 HENRY STREET
NORTH VERNON, IN 47265
Phone 812-352-4200
Manager: STEVE ELMORE
301 HENRY ST
NORTH VERNON, IN 47265
Phone 812-352-4200

Additional Remarks

FOR CD CTC INDIANAPOLIS ARTCC AT 317-247-2411.

Instrument Procedures

There are no published instrument procedures at 07II.

Some nearby airports with instrument procedures:

KOVO - North Vernon Airport (3 nm NE)
KSER - Freeman Municipal Airport (14 nm W)
KIMS - Madison Municipal Airport (17 nm SE)
KBAK - Columbus Municipal Airport (19 nm NW)
I34 - Greensburg Municipal Airport (20 nm N)
 
Loc | Ops | Rwys | IFR | FBO | Links
Com | Nav | Svcs | Stats | Notes
Area around 07II (St Vincent Jennings Hospital Heliport)
 
Road maps at: MapQuest Bing Google
 
Aerial photo
No photo
 
Sectional chart

 
Airport distance calculator
Flying to St Vincent Jennings Hospital Heliport? Find the distance to fly.

From to 07II

Sunrise and sunset
Times for 12-Nov-2019
 Local
(UTC-5)
 Zulu
(UTC)
Morning civil twilight06:5511:55
Sunrise07:2312:23
Sunset17:3022:30
Evening civil twilight17:5922:59

Current date and time
Zulu (UTC)  12-Nov-2019 13:05:30
Local (UTC-5)  12-Nov-2019 08:05:30
 
METAR
KIMS 
17nm SE 
121235Z AUTO 30009KT 10SM CLR M09/M12 A3040 RMK AO1
KBAK 
20nm NW 
121245Z 30007KT 10SM SKC M12/M16 A3042
KHLB 
27nm NE 
121255Z AUTO VRB03G10KT 10SM FEW015 SCT035 M11/M13 A3036 RMK A01
TAF
KCVG 
45nm E 
121143Z 1212/1318 32012KT P6SM VCSH OVC012 FM121400 32012G19KT P6SM BKN025 FM121700 32012KT P6SM BKN035 FM130100 32007KT P6SM FEW025 FM130900 VRB03KT P6SM SCT200 FM131500 15007KT P6SM SCT120
KBMG 
46nm W 
121120Z 1212/1312 32010G20KT P6SM FEW100 FM121500 33010KT P6SM FEW250 FM130000 VRB04KT P6SM SKC AMD LTD TO CLD VIS AND WIND TIL 121400
KSDF 
50nm S 
121120Z 1212/1318 33012G22KT P6SM BKN040 FM121500 33012G20KT P6SM SKC FM122000 33012KT P6SM FEW040 FM130200 33006KT P6SM FEW200 FM130700 VRB03KT P6SM FEW250
NOTAMs
Click for the latest NOTAMs
NOTAMs are issued by the DoD/FAA and will open in a separate window not controlled by AirNav.

 

 
 

Would you like to see your business listed on this page?

 If your business provides an interesting product or service to pilots, flight crews, aircraft, or users of the St Vincent Jennings Hospital Heliport, you should consider listing it here.  To start the listing process, click on the button below
 
Add a business
 

Other Pages about St Vincent Jennings Hospital Heliport

Update a link
 
Copyright © AirNav, LLC. All rights reserved. Privacy Policy  Contact